createdAt,value
2018-06-21T00:00:43.149Z,100235.66
2018-06-21T00:03:10.765Z,100230.81
2018-06-21T00:05:43.479Z,100228.83
2018-06-21T00:08:11.516Z,100235.61
2018-06-21T00:10:39.180Z,100235.94
2018-06-21T00:13:06.836Z,100234.80
2018-06-21T00:15:34.500Z,100231.70
2018-06-21T00:18:02.118Z,100238.80
2018-06-21T00:20:29.801Z,100237.55
2018-06-21T00:22:57.446Z,100231.91
2018-06-21T00:25:24.988Z,100228.81
2018-06-21T00:27:52.612Z,100232.05
2018-06-21T00:30:20.160Z,100229.44
2018-06-21T00:32:47.748Z,100226.01
2018-06-21T00:35:15.811Z,100221.59
2018-06-21T00:37:43.455Z,100218.69
2018-06-21T00:40:11.056Z,100220.06
2018-06-21T00:42:38.681Z,100218.41
2018-06-21T00:45:07.899Z,100218.07
2018-06-21T00:47:36.069Z,100219.70
2018-06-21T00:50:03.693Z,100220.31
2018-06-21T00:52:31.275Z,100210.82
2018-06-21T00:54:58.902Z,100214.67
2018-06-21T00:57:26.433Z,100201.19
2018-06-21T00:59:53.968Z,100204.97
2018-06-21T01:02:21.560Z,100202.11
2018-06-21T01:04:49.087Z,100206.61
2018-06-21T01:07:17.234Z,100198.31
2018-06-21T01:09:44.826Z,100196.16
2018-06-21T01:12:12.720Z,100205.80
2018-06-21T01:14:40.582Z,100200.13
2018-06-21T01:17:09.017Z,100191.72
2018-06-21T01:19:37.323Z,100190.45
2018-06-21T01:22:05.809Z,100183.52
2018-06-21T01:24:34.172Z,100181.08
2018-06-21T01:27:02.661Z,100171.86
2018-06-21T01:29:31.025Z,100168.96
2018-06-21T01:31:59.461Z,100168.21
2018-06-21T01:34:27.886Z,100166.16
2018-06-21T01:36:56.580Z,100160.83
2018-06-21T01:39:24.874Z,100157.69
2018-06-21T01:41:53.226Z,100158.12
2018-06-21T01:44:21.645Z,100144.73
2018-06-21T01:46:50.310Z,100149.70
2018-06-21T01:49:18.620Z,100153.69
2018-06-21T01:51:47.544Z,100149.37
2018-06-21T01:54:15.864Z,100161.48
2018-06-21T01:56:44.261Z,100164.63
2018-06-21T01:59:12.612Z,100162.98
2018-06-21T02:01:41.142Z,100166.94
2018-06-21T02:04:09.539Z,100160.50
2018-06-21T02:06:37.930Z,100164.04
2018-06-21T02:09:08.174Z,100160.18
2018-06-21T02:11:36.542Z,100162.59
2018-06-21T02:14:05.183Z,100159.26
2018-06-21T02:16:33.891Z,100164.14
2018-06-21T02:19:02.279Z,100154.66
2018-06-21T02:21:30.640Z,100156.39
2018-06-21T02:23:59.000Z,100151.62
2018-06-21T02:26:27.336Z,100153.63
2018-06-21T02:28:55.651Z,100148.52
2018-06-21T02:31:23.989Z,100161.14
2018-06-21T02:33:52.315Z,100151.48
2018-06-21T02:36:20.664Z,100147.91
2018-06-21T02:38:49.275Z,100146.16
2018-06-21T02:41:20.160Z,100142.87
2018-06-21T02:43:49.142Z,100139.31
2018-06-21T02:46:17.684Z,100136.25
2018-06-21T02:48:46.105Z,100135.06
2018-06-21T02:51:14.800Z,100129.22
2018-06-21T02:53:43.110Z,100124.72
2018-06-21T02:56:11.615Z,100122.89
2018-06-21T02:58:39.933Z,100119.27
2018-06-21T03:01:08.297Z,100113.27
2018-06-21T03:03:36.612Z,100116.70
2018-06-21T03:06:04.981Z,100109.27
2018-06-21T03:08:33.341Z,100105.14
2018-06-21T03:11:01.735Z,100105.14
2018-06-21T03:13:30.208Z,100093.19
2018-06-21T03:15:58.957Z,100094.68
2018-06-21T03:18:27.699Z,100088.63
2018-06-21T03:20:56.074Z,100087.12
2018-06-21T03:23:24.419Z,100085.22
2018-06-21T03:25:52.774Z,100079.95
2018-06-21T03:28:21.233Z,100073.83
2018-06-21T03:30:49.581Z,100076.45
2018-06-21T03:33:18.054Z,100066.28
2018-06-21T03:35:46.490Z,100062.52
2018-06-21T03:38:14.861Z,100062.65
2018-06-21T03:40:43.233Z,100068.03
2018-06-21T03:43:11.681Z,100064.27
2018-06-21T03:45:40.133Z,100066.83
2018-06-21T03:48:08.533Z,100056.52
2018-06-21T03:50:36.952Z,100054.46
2018-06-21T03:53:05.577Z,100047.81
2018-06-21T03:55:34.121Z,100057.80
2018-06-21T03:58:02.621Z,100059.17
2018-06-21T04:00:31.026Z,100056.83
2018-06-21T04:02:59.468Z,100047.86
2018-06-21T04:05:27.924Z,100046.16
2018-06-21T04:07:56.345Z,100047.21
2018-06-21T04:10:24.737Z,100048.27
2018-06-21T04:12:53.158Z,100051.52
2018-06-21T04:15:21.642Z,100037.34
2018-06-21T04:17:50.094Z,100030.48
2018-06-21T04:20:18.581Z,100030.37
2018-06-21T04:22:46.965Z,100028.09
2018-06-21T04:25:15.572Z,100029.72
2018-06-21T04:27:43.920Z,100032.64
2018-06-21T04:30:12.291Z,100029.72
2018-06-21T04:32:41.082Z,100027.23
2018-06-21T04:35:09.563Z,100027.88
2018-06-21T04:37:38.510Z,100026.11
2018-06-21T04:40:06.994Z,100023.25
2018-06-21T04:42:35.574Z,100022.02
2018-06-21T04:45:04.116Z,100027.67
2018-06-21T04:47:32.542Z,100023.84
2018-06-21T04:50:01.939Z,100015.15
2018-06-21T04:52:30.569Z,100014.70
2018-06-21T04:54:58.972Z,100013.36
2018-06-21T04:57:27.454Z,100005.45
2018-06-21T04:59:55.966Z,99999.18
2018-06-21T05:02:24.298Z,99981.03
2018-06-21T05:04:52.698Z,99975.00
2018-06-21T05:07:21.216Z,99971.64
2018-06-21T05:09:49.728Z,99978.80
2018-06-21T05:12:21.446Z,99988.81
2018-06-21T05:14:50.734Z,99976.94
2018-06-21T05:17:19.296Z,99976.02
2018-06-21T05:19:47.692Z,99964.02
2018-06-21T05:22:16.182Z,99961.67
2018-06-21T05:24:44.582Z,99955.61
2018-06-21T05:27:18.124Z,99953.05
2018-06-21T05:29:46.506Z,99952.84
2018-06-21T05:32:14.926Z,99948.32
2018-06-21T05:34:43.261Z,99949.86
2018-06-21T05:37:11.766Z,99936.89
2018-06-21T05:39:40.120Z,99937.41
2018-06-21T05:42:08.650Z,99933.25
2018-06-21T05:44:37.110Z,99931.00
2018-06-21T05:47:05.570Z,99926.35
2018-06-21T05:49:34.487Z,99922.50
2018-06-21T05:52:02.950Z,99921.42
2018-06-21T05:54:31.364Z,99918.73
2018-06-21T05:56:59.681Z,99917.28
2018-06-21T05:59:28.091Z,99916.97
2018-06-21T06:01:56.525Z,99907.54
2018-06-21T06:04:24.928Z,99899.05
2018-06-21T06:06:53.419Z,99905.52
2018-06-21T06:09:21.837Z,99899.39
2018-06-21T06:11:50.272Z,99890.35
2018-06-21T06:14:18.867Z,99881.73
2018-06-21T06:16:48.461Z,99884.77
2018-06-21T06:19:16.974Z,99877.88
2018-06-21T06:21:45.465Z,99873.10
2018-06-21T06:24:14.211Z,99872.65
2018-06-21T06:26:42.772Z,99869.95
2018-06-21T06:29:11.259Z,99871.98
2018-06-21T06:31:40.035Z,99867.75
2018-06-21T06:34:08.395Z,99863.97
2018-06-21T06:36:36.760Z,99865.53
2018-06-21T06:39:13.311Z,99862.52
2018-06-21T06:41:41.797Z,99860.80
2018-06-21T06:44:10.851Z,99858.70
2018-06-21T06:46:39.271Z,99853.31
2018-06-21T06:49:08.624Z,99852.97
2018-06-21T06:51:37.022Z,99855.34
2018-06-21T06:54:05.411Z,99846.05
2018-06-21T06:56:33.835Z,99849.39
2018-06-21T06:59:02.217Z,99847.30
2018-06-21T07:01:31.037Z,99845.39
2018-06-21T07:03:59.437Z,99851.82
2018-06-21T07:06:27.880Z,99836.02
2018-06-21T07:08:56.801Z,99834.00
2018-06-21T07:11:25.832Z,99835.78
2018-06-21T07:13:54.709Z,99826.91
2018-06-21T07:16:23.444Z,99827.17
2018-06-21T07:18:52.045Z,99815.16
2018-06-21T07:21:20.625Z,99810.70
2018-06-21T07:23:49.011Z,99812.85
2018-06-21T07:26:17.505Z,99804.19
2018-06-21T07:28:45.883Z,99802.45
2018-06-21T07:31:14.361Z,99794.87
2018-06-21T07:33:42.812Z,99797.02
2018-06-21T07:36:11.305Z,99785.56
2018-06-21T07:38:39.883Z,99774.33
2018-06-21T07:41:08.417Z,99774.94
2018-06-21T07:43:36.940Z,99778.23
2018-06-21T07:46:05.499Z,99774.54
2018-06-21T07:48:34.006Z,99769.30
2018-06-21T07:51:02.419Z,99762.50
2018-06-21T07:53:31.002Z,99752.22
2018-06-21T07:55:59.413Z,99750.27
2018-06-21T07:58:28.437Z,99745.64
2018-06-21T08:00:56.813Z,99746.58
2018-06-21T08:03:25.156Z,99741.53
2018-06-21T08:05:53.553Z,99748.70
2018-06-21T08:08:21.997Z,99729.26
2018-06-21T08:10:50.553Z,99732.77
2018-06-21T08:13:19.080Z,99731.58
2018-06-21T08:15:47.565Z,99725.38
2018-06-21T08:18:16.238Z,99720.45
2018-06-21T08:20:44.648Z,99711.67
2018-06-21T08:23:13.605Z,99719.27
2018-06-21T08:25:42.108Z,99724.14
2018-06-21T08:28:10.638Z,99715.77
2018-06-21T08:30:39.074Z,99702.73
2018-06-21T08:33:07.483Z,99709.38
2018-06-21T08:35:36.135Z,99700.78
2018-06-21T08:38:04.615Z,99696.44
2018-06-21T08:40:32.966Z,99698.69
2018-06-21T08:43:01.365Z,99691.11
2018-06-21T08:45:29.759Z,99691.92
2018-06-21T08:47:58.099Z,99699.14
2018-06-21T08:50:26.601Z,99690.30
2018-06-21T08:52:55.051Z,99690.61
2018-06-21T08:55:23.577Z,99699.33
2018-06-21T08:57:52.244Z,99696.48
2018-06-21T09:00:20.537Z,99696.08
2018-06-21T09:02:48.909Z,99695.05
2018-06-21T09:05:17.294Z,99689.59
2018-06-21T09:07:45.709Z,99689.33
2018-06-21T09:10:14.042Z,99692.68
2018-06-21T09:12:42.486Z,99683.52
2018-06-21T09:15:11.527Z,99687.25
2018-06-21T09:17:39.842Z,99681.44
2018-06-21T09:20:08.371Z,99676.41
2018-06-21T09:22:36.780Z,99692.39
2018-06-21T09:25:05.173Z,99689.67
2018-06-21T09:27:33.577Z,99681.50
2018-06-21T09:30:01.973Z,99670.52
2018-06-21T09:32:31.221Z,99687.80
2018-06-21T09:34:59.558Z,99692.25
2018-06-21T09:37:34.482Z,99688.97
2018-06-21T09:40:08.481Z,99686.66
2018-06-21T09:42:42.163Z,99695.59
2018-06-21T09:45:10.629Z,99693.91
2018-06-21T09:48:47.900Z,99696.80
2018-06-21T09:51:16.317Z,99697.20
2018-06-21T09:53:44.709Z,99693.71
2018-06-21T09:56:13.077Z,99691.31
2018-06-21T09:58:41.506Z,99705.70
2018-06-21T10:01:09.983Z,99676.26
2018-06-21T10:03:38.321Z,99695.61
2018-06-21T10:06:06.996Z,99699.02
2018-06-21T10:08:35.400Z,99699.23
2018-06-21T10:11:03.863Z,99684.66
2018-06-21T10:13:32.536Z,99690.15
2018-06-21T10:16:01.042Z,99697.92
2018-06-21T10:18:29.431Z,99692.55
2018-06-21T10:20:57.889Z,99691.66
2018-06-21T10:23:26.271Z,99682.94
2018-06-21T10:25:54.773Z,99689.42
2018-06-21T10:28:23.127Z,99686.51
2018-06-21T10:30:51.573Z,99679.11
2018-06-21T10:33:20.237Z,99694.67
2018-06-21T10:35:49.415Z,99695.96
2018-06-21T10:38:17.994Z,99711.80
2018-06-21T10:40:46.393Z,99702.50
2018-06-21T10:43:15.587Z,99691.38
2018-06-21T10:45:44.289Z,99691.32
2018-06-21T10:48:12.876Z,99707.88
2018-06-21T10:50:41.562Z,99697.34
2018-06-21T10:53:10.094Z,99698.47
2018-06-21T10:55:38.473Z,99712.62
2018-06-21T10:58:07.401Z,99713.01
2018-06-21T11:00:36.361Z,99716.16
2018-06-21T11:03:04.893Z,99717.74
2018-06-21T11:05:33.763Z,99712.07
2018-06-21T11:08:02.249Z,99720.76
2018-06-21T11:10:30.667Z,99741.98
2018-06-21T11:12:59.292Z,99777.05
2018-06-21T11:15:27.791Z,99807.59
2018-06-21T11:17:56.204Z,99832.03
2018-06-21T11:20:24.609Z,99838.21
2018-06-21T11:22:53.352Z,99879.75
2018-06-21T11:25:26.856Z,99891.11
2018-06-21T11:27:55.768Z,99919.78
2018-06-21T11:30:25.738Z,99926.22
2018-06-21T11:32:54.410Z,99949.98
2018-06-21T11:35:27.947Z,99957.10
2018-06-21T11:37:56.290Z,99961.26
2018-06-21T11:40:26.718Z,99972.59
2018-06-21T11:42:55.936Z,99981.80
2018-06-21T11:45:35.630Z,99981.29
2018-06-21T11:48:03.351Z,100004.97
2018-06-21T11:50:31.140Z,100020.66
2018-06-21T11:52:58.837Z,100032.97
2018-06-21T11:55:26.701Z,100042.77
2018-06-21T11:57:54.425Z,100024.20
2018-06-21T12:00:22.820Z,100035.31
2018-06-21T12:02:50.418Z,100056.40
2018-06-21T12:05:18.317Z,100047.13
2018-06-21T12:07:47.233Z,100046.91
2018-06-21T12:10:17.347Z,100062.27
2018-06-21T12:12:46.189Z,100062.68
2018-06-21T12:15:14.624Z,100063.13
2018-06-21T12:17:43.271Z,100059.61
2018-06-21T12:20:11.737Z,100072.60
2018-06-21T12:22:42.420Z,100080.73
2018-06-21T12:25:12.905Z,100074.21
2018-06-21T12:27:42.303Z,100084.28
2018-06-21T12:30:13.687Z,100088.16
2018-06-21T12:32:42.227Z,100081.19
2018-06-21T12:35:10.593Z,100082.29
2018-06-21T12:37:39.583Z,100089.80
2018-06-21T12:40:09.745Z,100089.55
2018-06-21T12:42:40.743Z,100091.19
2018-06-21T12:45:09.629Z,100092.63
2018-06-21T12:47:40.102Z,100095.16
2018-06-21T12:50:09.654Z,100091.61
2018-06-21T12:52:39.895Z,100110.06
2018-06-21T12:55:09.962Z,100112.80
2018-06-21T12:57:40.734Z,100118.79
2018-06-21T13:00:10.083Z,100138.94
2018-06-21T13:02:40.334Z,100147.72
2018-06-21T13:05:10.145Z,100142.22
2018-06-21T13:07:39.225Z,100140.68
2018-06-21T13:10:19.041Z,100135.43
2018-06-21T13:13:03.870Z,100131.95
2018-06-21T13:15:39.547Z,100134.59
2018-06-21T13:18:08.312Z,100145.30
2018-06-21T13:20:37.606Z,100148.33
2018-06-21T13:23:06.242Z,100144.16
2018-06-21T13:25:34.693Z,100139.22
2018-06-21T13:28:03.184Z,100145.52
2018-06-21T13:30:31.641Z,100149.34
2018-06-21T13:33:00.110Z,100150.22
2018-06-21T13:35:28.813Z,100152.48
2018-06-21T13:37:57.545Z,100154.27
2018-06-21T13:40:27.780Z,100145.45
2018-06-21T13:42:56.242Z,100146.73
2018-06-21T13:45:24.682Z,100140.62
2018-06-21T13:47:53.153Z,100136.56
2018-06-21T13:50:21.964Z,100142.72
2018-06-21T13:52:50.350Z,100142.98
2018-06-21T13:55:19.318Z,100135.83
2018-06-21T13:57:49.248Z,100135.95
2018-06-21T14:00:19.208Z,100145.80
2018-06-21T14:02:48.116Z,100142.08
2018-06-21T14:05:17.619Z,100132.15
2018-06-21T14:07:47.049Z,100129.83
2018-06-21T14:10:15.509Z,100138.52
2018-06-21T14:12:49.455Z,100154.42
2018-06-21T14:15:24.070Z,100160.70
2018-06-21T14:17:55.189Z,100172.94
2018-06-21T14:20:23.783Z,100165.04
2018-06-21T14:22:54.794Z,100165.84
2018-06-21T14:25:33.812Z,100173.63
2018-06-21T14:28:02.628Z,100174.18
2018-06-21T14:30:44.434Z,100190.05
2018-06-21T14:33:13.168Z,100188.41
2018-06-21T14:35:48.498Z,100181.53
2018-06-21T14:38:21.757Z,100173.96
2018-06-21T14:40:55.000Z,100172.20
2018-06-21T14:43:23.453Z,100171.66
2018-06-21T14:45:55.359Z,100174.39
2018-06-21T14:48:23.956Z,100177.05
2018-06-21T14:50:54.881Z,100176.27
2018-06-21T14:53:25.283Z,100177.81
2018-06-21T14:56:03.234Z,100173.64
2018-06-21T14:58:36.569Z,100172.37
2018-06-21T15:01:06.095Z,100175.09
2018-06-21T15:03:39.949Z,100172.11
2018-06-21T15:06:24.385Z,100183.41
2018-06-21T15:08:56.841Z,100175.47
2018-06-21T15:11:26.853Z,100175.89
2018-06-21T15:13:55.455Z,100178.77
2018-06-21T15:16:25.513Z,100177.74
2018-06-21T15:18:56.628Z,100183.27
2018-06-21T15:21:26.061Z,100179.70
2018-06-21T15:23:56.517Z,100183.50
2018-06-21T15:26:30.012Z,100174.17
2018-06-21T15:29:00.920Z,100181.36
2018-06-21T15:31:32.384Z,100183.75
2018-06-21T15:34:01.197Z,100181.53
2018-06-21T15:36:30.488Z,100179.66
2018-06-21T15:39:04.568Z,100189.27
2018-06-21T15:41:34.433Z,100193.55
2018-06-21T15:44:05.270Z,100188.91
2018-06-21T15:46:42.102Z,100192.87
2018-06-21T15:49:14.025Z,100203.10
2018-06-21T15:51:44.513Z,100203.37
2018-06-21T15:54:16.514Z,100197.30
2018-06-21T15:56:45.629Z,100200.27
2018-06-21T15:59:14.401Z,100205.12
2018-06-21T16:01:44.328Z,100209.37
2018-06-21T16:04:17.283Z,100218.83
2018-06-21T16:07:04.444Z,100225.17
2018-06-21T16:09:36.502Z,100237.19
2018-06-21T16:12:05.546Z,100239.48
2018-06-21T16:14:34.130Z,100233.11
2018-06-21T16:17:02.610Z,100231.60
2018-06-21T16:19:31.170Z,100244.69
2018-06-21T16:21:59.902Z,100252.97
2018-06-21T16:24:28.467Z,100262.84
2018-06-21T16:27:01.984Z,100264.65
2018-06-21T16:29:30.543Z,100262.97
2018-06-21T16:31:58.954Z,100274.37
2018-06-21T16:34:27.564Z,100265.62
2018-06-21T16:37:01.266Z,100274.63
2018-06-21T16:39:29.817Z,100266.17
2018-06-21T16:41:58.264Z,100277.91
2018-06-21T16:44:27.044Z,100285.46
2018-06-21T16:46:55.594Z,100285.51
2018-06-21T16:49:24.466Z,100276.95
2018-06-21T16:51:52.964Z,100282.22
2018-06-21T16:54:21.442Z,100284.14
2018-06-21T16:56:49.860Z,100290.44
2018-06-21T16:59:18.620Z,100281.92
2018-06-21T17:01:47.976Z,100280.16
2018-06-21T17:04:16.490Z,100291.27
2018-06-21T17:06:44.959Z,100283.93
2018-06-21T17:09:13.452Z,100293.81
2018-06-21T17:11:42.158Z,100287.54
2018-06-21T17:14:10.887Z,100292.95
2018-06-21T17:16:44.597Z,100303.18
2018-06-21T17:19:13.109Z,100302.88
2018-06-21T17:21:41.794Z,100305.80
2018-06-21T17:24:10.214Z,100305.12
2018-06-21T17:26:43.804Z,100311.86
2018-06-21T17:29:12.313Z,100309.62
2018-06-21T17:31:41.396Z,100308.09
2018-06-21T17:34:10.213Z,100303.15
2018-06-21T17:36:43.993Z,100301.34
2018-06-21T17:39:12.793Z,100315.06
2018-06-21T17:41:42.341Z,100312.94
2018-06-21T17:44:12.312Z,100309.34
2018-06-21T17:46:47.732Z,100324.74
2018-06-21T17:49:17.908Z,100326.41
2018-06-21T17:51:46.743Z,100328.55
2018-06-21T17:54:15.418Z,100342.57
2018-06-21T17:56:45.138Z,100345.14
2018-06-21T17:59:15.708Z,100345.25
2018-06-21T18:01:44.516Z,100342.20
2018-06-21T18:04:13.514Z,100343.56
2018-06-21T18:07:04.617Z,100344.68
2018-06-21T18:09:33.367Z,100348.60
2018-06-21T18:12:02.014Z,100357.78
2018-06-21T18:14:32.383Z,100354.76
2018-06-21T18:17:05.976Z,100369.45
2018-06-21T18:19:34.454Z,100372.82
2018-06-21T18:22:02.870Z,100372.13
2018-06-21T18:24:31.326Z,100370.88
2018-06-21T18:27:13.480Z,100374.33
2018-06-21T18:29:42.078Z,100382.95
2018-06-21T18:32:10.758Z,100383.16
2018-06-21T18:34:39.364Z,100391.30
2018-06-21T18:37:07.880Z,100393.75
2018-06-21T18:39:36.494Z,100395.54
2018-06-21T18:42:05.482Z,100402.67
2018-06-21T18:44:34.033Z,100399.30
2018-06-21T18:47:08.136Z,100409.60
2018-06-21T18:49:36.769Z,100404.55
2018-06-21T18:52:05.273Z,100408.55
2018-06-21T18:54:33.804Z,100414.03
2018-06-21T18:57:11.715Z,100412.78
2018-06-21T18:59:40.234Z,100420.51
2018-06-21T19:02:08.678Z,100425.03
2018-06-21T19:04:37.386Z,100429.30
2018-06-21T19:07:11.482Z,100429.01
2018-06-21T19:09:45.578Z,100434.63
2018-06-21T19:12:14.890Z,100448.17
2018-06-21T19:14:43.472Z,100453.27
2018-06-21T19:17:12.210Z,100467.84
2018-06-21T19:19:40.749Z,100467.69
2018-06-21T19:22:09.288Z,100478.09
2018-06-21T19:24:37.739Z,100477.12
2018-06-21T19:27:15.684Z,100487.01
2018-06-21T19:29:44.118Z,100498.24
2018-06-21T19:32:12.620Z,100493.59
2018-06-21T19:34:41.144Z,100504.59
2018-06-21T19:37:09.832Z,100502.56
2018-06-21T19:39:38.870Z,100508.40
2018-06-21T19:42:07.337Z,100512.98
2018-06-21T19:44:35.774Z,100514.45
2018-06-21T19:47:04.364Z,100519.26
2018-06-21T19:49:32.865Z,100519.34
2018-06-21T19:52:01.325Z,100516.90
2018-06-21T19:54:29.776Z,100531.67
2018-06-21T19:56:58.385Z,100525.04
2018-06-21T19:59:26.844Z,100531.63
2018-06-21T20:01:55.164Z,100540.86
2018-06-21T20:04:23.718Z,100540.61
2018-06-21T20:06:52.150Z,100538.72
2018-06-21T20:09:20.641Z,100545.42
2018-06-21T20:11:49.149Z,100543.98
2018-06-21T20:14:17.621Z,100552.63
2018-06-21T20:16:46.146Z,100550.33
2018-06-21T20:19:16.784Z,100554.83
2018-06-21T20:21:45.428Z,100559.27
2018-06-21T20:24:13.984Z,100567.68
2018-06-21T20:26:42.454Z,100564.68
2018-06-21T20:29:16.373Z,100567.15
2018-06-21T20:31:44.992Z,100563.13
2018-06-21T20:34:13.592Z,100571.46
2018-06-21T20:36:42.088Z,100574.42
2018-06-21T20:39:11.450Z,100585.48
2018-06-21T20:41:39.972Z,100582.91
2018-06-21T20:44:08.505Z,100587.73
2018-06-21T20:46:37.930Z,100584.80
2018-06-21T20:49:06.321Z,100584.77
2018-06-21T20:51:34.744Z,100589.89
2018-06-21T20:54:03.082Z,100596.67
2018-06-21T20:56:31.546Z,100601.14
2018-06-21T20:58:59.834Z,100607.86
2018-06-21T21:01:28.292Z,100606.27
2018-06-21T21:03:56.669Z,100610.29
2018-06-21T21:06:25.868Z,100611.05
2018-06-21T21:08:54.236Z,100602.89
2018-06-21T21:11:22.614Z,100610.30
2018-06-21T21:13:51.042Z,100608.77
2018-06-21T21:16:19.545Z,100616.38
2018-06-21T21:18:47.971Z,100613.55
2018-06-21T21:21:16.354Z,100618.29
2018-06-21T21:23:44.710Z,100620.47
2018-06-21T21:26:13.194Z,100618.29
2018-06-21T21:28:41.589Z,100615.30
2018-06-21T21:31:09.959Z,100616.45
2018-06-21T21:33:38.386Z,100612.48
2018-06-21T21:36:07.987Z,100610.00
2018-06-21T21:38:36.336Z,100603.36
2018-06-21T21:41:04.739Z,100608.64
2018-06-21T21:43:33.186Z,100606.33
2018-06-21T21:46:01.571Z,100604.12
2018-06-21T21:48:29.926Z,100605.27
2018-06-21T21:50:58.412Z,100599.78
2018-06-21T21:53:26.784Z,100601.72
2018-06-21T21:55:55.300Z,100592.41
2018-06-21T21:58:23.682Z,100592.34
2018-06-21T22:00:54.262Z,100594.36
2018-06-21T22:03:22.580Z,100598.57
2018-06-21T22:05:51.138Z,100596.86
2018-06-21T22:08:19.577Z,100588.23
2018-06-21T22:10:48.446Z,100594.67
2018-06-21T22:13:17.131Z,100603.80
2018-06-21T22:15:45.690Z,100604.40
2018-06-21T22:18:14.034Z,100605.55
2018-06-21T22:23:18.686Z,100605.67
2018-06-21T22:25:47.265Z,100605.27
2018-06-21T22:28:15.652Z,100611.27
2018-06-21T22:30:44.033Z,100611.83
2018-06-21T22:33:12.426Z,100617.81
2018-06-21T22:35:41.032Z,100620.30
2018-06-21T22:38:09.635Z,100611.81
2018-06-21T22:40:38.123Z,100617.73
2018-06-21T22:43:06.460Z,100608.48
2018-06-21T22:45:34.933Z,100600.25
2018-06-21T22:48:03.306Z,100600.00
2018-06-21T22:50:31.711Z,100593.73
2018-06-21T22:53:00.182Z,100586.89
2018-06-21T22:55:28.566Z,100588.29
2018-06-21T22:57:56.916Z,100581.74
2018-06-21T23:00:25.298Z,100587.27
2018-06-21T23:02:53.674Z,100585.98
2018-06-21T23:05:22.117Z,100585.00
2018-06-21T23:07:50.523Z,100587.68
2018-06-21T23:10:18.918Z,100595.52
2018-06-21T23:12:47.274Z,100593.87
2018-06-21T23:15:15.814Z,100588.31
2018-06-21T23:17:44.346Z,100595.37
2018-06-21T23:20:12.930Z,100598.94
2018-06-21T23:22:41.339Z,100608.30
2018-06-21T23:25:09.779Z,100599.90
2018-06-21T23:27:38.189Z,100605.88
2018-06-21T23:30:06.712Z,100594.91
2018-06-21T23:32:35.060Z,100592.70
2018-06-21T23:35:03.558Z,100602.13
2018-06-21T23:37:31.968Z,100599.45
2018-06-21T23:40:00.386Z,100600.48
2018-06-21T23:42:28.792Z,100602.94
2018-06-21T23:44:57.189Z,100602.08
2018-06-21T23:47:26.113Z,100613.28
2018-06-21T23:49:54.525Z,100608.77
2018-06-21T23:52:22.836Z,100617.16
2018-06-21T23:54:51.273Z,100612.30
2018-06-21T23:57:19.614Z,100614.22
2018-06-21T23:59:48.052Z,100615.63
